Time;durP1;ratioP1;P1;durP2;ratioP2;P2;SDS_P1;SDS_P2;PMS_P1;PMS_P2;Temp;Humidity;BMP_temperature;BMP_pressure;BME280_temperature;BME280_humidity;BME280_pressure;Samples;Min_cycle;Max_cycle;Signal;HPM_P1;HPM_P2
2023/08/23 00:01:15;;;;;;;;;;;;;;;30.33;85.93;98081.16;5057735;28;20001;-78
2023/08/23 00:03:41;;;;;;;;;;;;;;;30.10;86.88;98077.13;5061189;28;19952;-77
2023/08/23 00:06:07;;;;;;;;;;;;;;;30.08;87.19;98068.47;5061579;28;19925;-77
2023/08/23 00:08:35;;;;;;;;;;;;;;;30.23;87.29;98073.66;5057084;28;19925;-77
2023/08/23 00:11:01;;;;;;;;;;;;;;;30.29;87.06;98074.06;5056216;28;19932;-78
2023/08/23 00:13:28;;;;;;;;;;;;;;;30.49;85.24;98067.03;5059788;28;19925;-78
2023/08/23 00:15:54;;;;;;;;;;;;;;;30.71;83.48;98057.66;5060265;28;19932;-78
2023/08/23 00:18:20;;;;;;;;;;;;;;;30.73;83.31;98063.53;5059657;28;19993;-78
2023/08/23 00:20:47;;;;;;;;;;;;;;;30.87;82.06;98074.59;5057545;28;19929;-78
2023/08/23 00:23:13;;;;;;;;;;;;;;;30.69;83.42;98064.72;5058164;28;19925;-78
2023/08/23 00:25:41;;;;;;;;;;;;;;;30.42;86.02;98072.56;5061421;28;19925;-78
2023/08/23 00:28:07;;;;;;;;;;;;;;;30.28;87.86;98064.22;5061437;28;19925;-78
2023/08/23 00:30:34;;;;;;;;;;;;;;;29.96;90.10;98061.31;5056731;28;19961;-78
2023/08/23 00:33:00;;;;;;;;;;;;;;;29.62;93.65;98065.47;5056251;28;19972;-78
2023/08/23 00:35:27;;;;;;;;;;;;;;;29.25;97.59;98071.88;5058425;28;19936;-78
2023/08/23 00:37:53;;;;;;;;;;;;;;;29.36;98.32;98077.47;5061080;28;19936;-78
2023/08/23 00:40:19;;;;;;;;;;;;;;;29.48;96.92;98082.66;5058866;28;20531;-78
2023/08/23 00:42:48;;;;;;;;;;;;;;;29.84;93.55;98073.47;5058096;28;19929;-78
2023/08/23 00:45:14;;;;;;;;;;;;;;;30.11;91.13;98073.22;5061471;28;19932;-78
2023/08/23 00:47:40;;;;;;;;;;;;;;;30.31;89.29;98077.22;5064836;28;19947;-78
2023/08/23 00:50:07;;;;;;;;;;;;;;;30.43;88.21;98071.38;5064405;28;20341;-78
2023/08/23 00:52:33;;;;;;;;;;;;;;;30.45;87.82;98063.50;5061396;28;19929;-78
2023/08/23 00:55:00;;;;;;;;;;;;;;;30.48;87.71;98068.25;5061219;28;20016;-78
2023/08/23 00:57:26;;;;;;;;;;;;;;;30.39;88.71;98068.59;5063101;28;19971;-78
2023/08/23 00:59:54;;;;;;;;;;;;;;;30.04;91.82;98073.97;5064309;28;19932;-78
2023/08/23 01:02:20;;;;;;;;;;;;;;;30.13;91.18;98076.34;5064067;28;19921;-78
2023/08/23 01:04:48;;;;;;;;;;;;;;;30.14;91.41;98066.94;5061363;28;19929;-78
2023/08/23 01:07:16;;;;;;;;;;;;;;;30.38;89.33;98075.28;5060414;28;19929;-78
2023/08/23 01:09:46;;;;;;;;;;;;;;;30.49;88.62;98070.59;5063686;28;19936;-78
2023/08/23 01:12:18;;;;;;;;;;;;;;;30.14;90.80;98066.94;5064598;28;19932;-78
2023/08/23 01:14:49;;;;;;;;;;;;;;;29.80;93.14;98069.88;5059772;28;19925;-78
2023/08/23 01:17:19;;;;;;;;;;;;;;;29.34;97.20;98066.03;5060759;28;19948;-78
2023/08/23 01:19:46;;;;;;;;;;;;;;;29.00;99.34;98056.34;5062235;28;20364;-78
2023/08/23 01:22:17;;;;;;;;;;;;;;;28.99;100.00;98057.50;5062214;28;19947;-78
2023/08/23 01:24:45;;;;;;;;;;;;;;;29.53;96.99;98060.28;5059668;28;19925;-78
2023/08/23 01:27:11;;;;;;;;;;;;;;;29.11;97.93;98065.47;5059948;28;19925;-78
2023/08/23 01:29:38;;;;;;;;;;;;;;;29.00;99.82;98061.84;5067186;28;19948;-78
2023/08/23 01:32:09;;;;;;;;;;;;;;;28.73;99.27;98059.25;5059662;28;19933;-78
2023/08/23 01:34:37;;;;;;;;;;;;;;;28.20;100.00;98066.09;5061656;28;20194;-79
2023/08/23 01:37:05;;;;;;;;;;;;;;;28.35;99.43;98068.63;5063190;28;19992;-78
2023/08/23 01:39:32;;;;;;;;;;;;;;;28.43;98.92;98069.50;5060965;28;19932;-78
2023/08/23 01:42:00;;;;;;;;;;;;;;;28.30;100.00;98055.25;5059396;28;19929;-78
2023/08/23 01:44:27;;;;;;;;;;;;;;;28.47;100.00;98053.88;5061627;28;19925;-78
2023/08/23 01:46:53;;;;;;;;;;;;;;;28.74;99.37;98057.28;5062695;28;19921;-77
2023/08/23 01:49:19;;;;;;;;;;;;;;;29.10;95.47;98066.63;5059366;28;19932;-77
2023/08/23 01:51:46;;;;;;;;;;;;;;;29.49;91.59;98065.00;5062005;28;19963;-77
2023/08/23 01:54:12;;;;;;;;;;;;;;;28.98;92.58;98061.41;5062486;28;19951;-77
2023/08/23 01:56:38;;;;;;;;;;;;;;;29.28;92.47;98070.31;5066443;28;19995;-77
2023/08/23 01:59:06;;;;;;;;;;;;;;;29.52;90.15;98079.94;5059652;28;19925;-78
2023/08/23 02:01:32;;;;;;;;;;;;;;;29.66;88.54;98083.56;5062541;28;19978;-78
2023/08/23 02:03:59;;;;;;;;;;;;;;;29.79;87.39;98084.03;5061956;28;19992;-78
2023/08/23 02:06:25;;;;;;;;;;;;;;;29.52;88.29;98078.00;5059933;28;19963;-78
2023/08/23 02:08:51;;;;;;;;;;;;;;;29.51;88.68;98090.16;5059664;28;19924;-78
2023/08/23 02:11:18;;;;;;;;;;;;;;;29.58;88.62;98076.44;5060173;28;19971;-78
2023/08/23 02:13:44;;;;;;;;;;;;;;;29.65;87.52;98079.22;5061861;28;19925;-77
2023/08/23 02:16:12;;;;;;;;;;;;;;;29.81;86.17;98067.91;5062622;28;19925;-78
2023/08/23 02:18:38;;;;;;;;;;;;;;;29.73;86.26;98075.34;5066966;28;19925;-78
2023/08/23 02:21:05;;;;;;;;;;;;;;;29.69;86.45;98069.03;5058065;28;19931;-78
2023/08/23 02:23:31;;;;;;;;;;;;;;;29.19;86.91;98078.88;5061681;28;19926;-78
2023/08/23 02:25:57;;;;;;;;;;;;;;;28.85;90.81;98069.97;5060992;28;19951;-78
2023/08/23 02:28:24;;;;;;;;;;;;;;;29.07;90.57;98078.38;5060545;28;20269;-78
2023/08/23 02:30:50;;;;;;;;;;;;;;;29.48;87.59;98074.41;5058940;28;19932;-78
2023/08/23 02:33:18;;;;;;;;;;;;;;;29.61;85.90;98069.38;5059261;28;19952;-78
2023/08/23 02:35:46;;;;;;;;;;;;;;;29.66;84.98;98078.06;5061220;28;19925;-78
2023/08/23 02:38:13;;;;;;;;;;;;;;;29.70;83.74;98084.38;5060790;28;19928;-78
2023/08/23 02:40:41;;;;;;;;;;;;;;;29.78;83.27;98079.69;5058725;28;19963;-78
2023/08/23 02:43:07;;;;;;;;;;;;;;;29.82;82.50;98088.81;5058579;28;19975;-78
2023/08/23 02:45:33;;;;;;;;;;;;;;;29.85;81.57;98088.03;5060196;28;19925;-78
2023/08/23 02:48:00;;;;;;;;;;;;;;;29.69;81.78;98085.56;5061999;28;19924;-78
2023/08/23 02:50:29;;;;;;;;;;;;;;;29.51;83.94;98087.41;5058529;28;19932;-78
2023/08/23 02:52:56;;;;;;;;;;;;;;;29.61;83.44;98077.66;5058113;28;19932;-78
2023/08/23 02:55:22;;;;;;;;;;;;;;;29.75;82.31;98073.00;5058418;28;19974;-78
2023/08/23 02:57:49;;;;;;;;;;;;;;;29.77;81.54;98073.41;5061931;28;19929;-78
2023/08/23 03:00:15;;;;;;;;;;;;;;;29.79;81.10;98073.03;5061082;28;19932;-78
2023/08/23 03:02:41;;;;;;;;;;;;;;;29.79;81.43;98071.06;5074053;28;19960;-78
2023/08/23 03:05:08;;;;;;;;;;;;;;;29.77;80.99;98067.88;5056522;28;19925;-78
2023/08/23 03:07:36;;;;;;;;;;;;;;;29.67;81.57;98070.59;5061332;28;19925;-78
2023/08/23 03:10:02;;;;;;;;;;;;;;;29.29;83.35;98067.22;5061680;28;20452;-78
2023/08/23 03:12:28;;;;;;;;;;;;;;;29.42;84.55;98075.94;5058114;28;20039;-78
2023/08/23 03:14:55;;;;;;;;;;;;;;;29.49;83.36;98073.25;5058025;28;20381;-78
2023/08/23 03:17:21;;;;;;;;;;;;;;;29.59;82.49;98069.75;5059409;28;19925;-79
2023/08/23 03:19:48;;;;;;;;;;;;;;;29.64;82.03;98072.16;5076844;28;19956;-78
2023/08/23 03:22:14;;;;;;;;;;;;;;;29.54;81.73;98067.38;5061285;28;19925;-78
2023/08/23 03:24:42;;;;;;;;;;;;;;;29.53;82.26;98071.28;5057566;28;19936;-78
2023/08/23 03:27:08;;;;;;;;;;;;;;;29.54;81.97;98074.84;5056829;28;19932;-78
2023/08/23 03:29:35;;;;;;;;;;;;;;;29.52;81.71;98075.22;5059334;28;19925;-78
2023/08/23 03:32:01;;;;;;;;;;;;;;;29.62;81.51;98082.75;5061100;28;19929;-78
2023/08/23 03:34:27;;;;;;;;;;;;;;;29.46;81.67;98082.28;5057481;28;19977;-78
2023/08/23 03:36:54;;;;;;;;;;;;;;;29.51;81.43;98081.91;5057500;28;19925;-79
2023/08/23 03:39:20;;;;;;;;;;;;;;;29.55;81.61;98096.50;5058614;28;19929;-78
2023/08/23 03:41:48;;;;;;;;;;;;;;;29.57;81.22;98091.38;5060692;28;19947;-78
2023/08/23 03:44:15;;;;;;;;;;;;;;;29.37;82.53;98093.59;5060892;28;19925;-76
2023/08/23 03:46:41;;;;;;;;;;;;;;;29.07;84.07;98092.13;5056550;28;19925;-77
2023/08/23 03:49:07;;;;;;;;;;;;;;;28.37;89.15;98095.75;5056453;28;19924;-77
2023/08/23 03:51:34;;;;;;;;;;;;;;;28.67;89.13;98095.69;5061530;28;19932;-77
2023/08/23 03:54:00;;;;;;;;;;;;;;;28.77;87.42;98098.56;5061390;28;19967;-77
2023/08/23 03:56:26;;;;;;;;;;;;;;;28.61;89.30;98097.16;5058078;28;19924;-77
2023/08/23 03:58:56;;;;;;;;;;;;;;;28.34;91.42;98104.72;5058071;28;19925;-77
2023/08/23 04:01:22;;;;;;;;;;;;;;;28.51;90.31;98104.13;5057816;28;19981;-77
2023/08/23 04:03:48;;;;;;;;;;;;;;;28.75;89.01;98109.13;5061267;28;20479;-77
2023/08/23 04:06:15;;;;;;;;;;;;;;;28.45;90.54;98105.63;5060656;28;19925;-77
2023/08/23 04:08:41;;;;;;;;;;;;;;;28.22;93.67;98100.28;5057415;28;19940;-78
2023/08/23 04:11:08;;;;;;;;;;;;;;;28.17;93.89;98105.28;5057708;28;19921;-78
2023/08/23 04:13:34;;;;;;;;;;;;;;;28.51;91.46;98098.63;5059104;28;19925;-78
2023/08/23 04:16:02;;;;;;;;;;;;;;;28.34;92.34;98110.22;5060914;28;20035;-78
2023/08/23 04:18:28;;;;;;;;;;;;;;;27.83;95.88;98118.94;5063492;28;19947;-78
2023/08/23 04:21:03;;;;;;;;;;;;;;;28.33;93.63;98114.13;5062484;28;19925;-78
2023/08/23 04:23:30;;;;;;;;;;;;;;;28.56;91.76;98111.25;5064894;28;19933;-78
2023/08/23 04:25:56;;;;;;;;;;;;;;;28.76;90.03;98110.72;5065527;28;19936;-78
2023/08/23 04:28:23;;;;;;;;;;;;;;;28.86;89.17;98115.53;5063486;28;19924;-78
2023/08/23 04:30:49;;;;;;;;;;;;;;;28.85;88.89;98118.66;5061484;28;19955;-78
2023/08/23 04:33:17;;;;;;;;;;;;;;;28.78;88.68;98126.84;5060296;28;19925;-78
2023/08/23 04:35:43;;;;;;;;;;;;;;;28.85;88.75;98113.94;5064629;28;19960;-78
2023/08/23 04:38:13;;;;;;;;;;;;;;;28.89;88.18;98113.97;5064441;28;19930;-78
2023/08/23 04:40:40;;;;;;;;;;;;;;;28.73;88.52;98114.22;5053058;28;19925;-78
2023/08/23 04:43:20;;;;;;;;;;;;;;;28.85;88.20;98111.19;5059993;28;19929;-77
2023/08/23 04:45:47;;;;;;;;;;;;;;;28.89;87.91;98103.78;5055447;28;19936;-77
2023/08/23 04:48:14;;;;;;;;;;;;;;;28.99;87.21;98104.25;5062776;28;19935;-78
2023/08/23 04:50:41;;;;;;;;;;;;;;;28.95;87.34;98095.97;5061212;28;19925;-77
2023/08/23 04:53:09;;;;;;;;;;;;;;;28.63;89.04;98109.38;5060444;28;20303;-77
2023/08/23 04:55:35;;;;;;;;;;;;;;;28.84;88.19;98095.84;5064032;28;19925;-77
2023/08/23 04:58:01;;;;;;;;;;;;;;;28.84;87.75;98095.84;5064112;28;19952;-77
2023/08/23 05:00:28;;;;;;;;;;;;;;;28.72;87.88;98100.88;5060680;28;19971;-78
2023/08/23 05:02:54;;;;;;;;;;;;;;;28.80;87.95;98111.53;5059474;28;19925;-77
2023/08/23 05:05:21;;;;;;;;;;;;;;;28.90;87.45;98105.38;5060580;28;19956;-77
2023/08/23 05:07:49;;;;;;;;;;;;;;;28.63;89.29;98106.63;5062636;28;19979;-77
2023/08/23 05:10:16;;;;;;;;;;;;;;;28.44;90.25;98106.03;5063535;28;19924;-77
2023/08/23 05:12:42;;;;;;;;;;;;;;;28.33;91.63;98108.63;5060448;28;19925;-77
2023/08/23 05:15:09;;;;;;;;;;;;;;;28.66;90.07;98114.13;5060273;28;19925;-78
2023/08/23 05:17:35;;;;;;;;;;;;;;;28.80;88.65;98111.53;5063260;28;19925;-78
2023/08/23 05:20:02;;;;;;;;;;;;;;;28.88;87.78;98104.94;5062409;28;19929;-78
2023/08/23 05:22:28;;;;;;;;;;;;;;;28.78;88.06;98110.34;5060244;28;19971;-77
2023/08/23 05:24:56;;;;;;;;;;;;;;;28.73;88.55;98116.97;5060338;28;19925;-78
2023/08/23 05:27:22;;;;;;;;;;;;;;;28.71;88.31;98110.28;5060507;28;19933;-78
2023/08/23 05:29:49;;;;;;;;;;;;;;;28.39;91.00;98112.63;5061690;28;19925;-78
2023/08/23 05:32:16;;;;;;;;;;;;;;;28.31;92.36;98113.72;5062296;28;19936;-78
2023/08/23 05:34:42;;;;;;;;;;;;;;;27.74;96.20;98107.47;5060319;28;19987;-78
2023/08/23 05:37:09;;;;;;;;;;;;;;;28.02;95.43;98114.50;5060629;28;19925;-78
2023/08/23 05:39:35;;;;;;;;;;;;;;;28.17;93.63;98110.78;5063525;28;19925;-78
2023/08/23 05:42:03;;;;;;;;;;;;;;;27.89;95.25;98116.66;5064219;28;19936;-78
2023/08/23 05:44:29;;;;;;;;;;;;;;;27.99;95.19;98110.53;5061058;28;19932;-77
2023/08/23 05:46:56;;;;;;;;;;;;;;;28.21;93.63;98114.38;5059336;28;20450;-77
2023/08/23 05:49:22;;;;;;;;;;;;;;;27.79;97.53;98120.84;5060932;28;19925;-77
2023/08/23 05:51:50;;;;;;;;;;;;;;;27.58;98.81;98112.31;5062915;28;19925;-77
2023/08/23 05:54:16;;;;;;;;;;;;;;;27.30;100.00;98117.31;5061452;28;19992;-77
2023/08/23 05:56:42;;;;;;;;;;;;;;;27.16;100.00;98122.59;5058250;28;20063;-77
2023/08/23 05:59:10;;;;;;;;;;;;;;;27.30;100.00;98120.84;5059056;28;19925;-77
2023/08/23 06:01:38;;;;;;;;;;;;;;;28.10;95.82;98121.69;5062510;28;19929;-77
2023/08/23 06:04:04;;;;;;;;;;;;;;;27.92;96.16;98115.94;5062900;28;20518;-77
2023/08/23 06:06:31;;;;;;;;;;;;;;;27.86;97.35;98123.69;5060176;28;19948;-77
2023/08/23 06:08:57;;;;;;;;;;;;;;;27.29;100.00;98110.28;5058315;28;19936;-77
2023/08/23 06:11:24;;;;;;;;;;;;;;;27.43;100.00;98118.75;5061012;28;19965;-77
2023/08/23 06:13:51;;;;;;;;;;;;;;;28.25;95.67;98117.97;5063339;28;19925;-77
2023/08/23 06:16:18;;;;;;;;;;;;;;;28.90;90.68;98118.31;5062275;28;19925;-78
2023/08/23 06:18:45;;;;;;;;;;;;;;;29.42;86.74;98111.72;5059241;28;19956;-78
2023/08/23 06:21:11;;;;;;;;;;;;;;;29.77;84.60;98114.69;5074431;28;19959;-78
2023/08/23 06:23:43;;;;;;;;;;;;;;;30.02;82.54;98114.84;5062441;28;19925;-78
2023/08/23 06:26:10;;;;;;;;;;;;;;;30.01;81.48;98112.50;5062591;28;19924;-77
2023/08/23 06:28:36;;;;;;;;;;;;;;;29.87;82.97;98115.97;5059057;28;19929;-77
2023/08/23 06:31:03;;;;;;;;;;;;;;;30.01;83.33;98116.06;5058971;28;19928;-77
2023/08/23 06:33:30;;;;;;;;;;;;;;;30.26;81.49;98116.16;5059788;28;19964;-77
2023/08/23 06:35:57;;;;;;;;;;;;;;;30.34;80.50;98121.31;5062087;28;19924;-78
2023/08/23 06:38:23;;;;;;;;;;;;;;;30.55;79.11;98108.81;5060581;28;19940;-77
2023/08/23 06:40:49;;;;;;;;;;;;;;;30.19;81.10;98121.63;5057407;28;19925;-77
2023/08/23 06:43:17;;;;;;;;;;;;;;;30.48;80.38;98131.63;5057903;28;19933;-77
2023/08/23 06:45:44;;;;;;;;;;;;;;;30.27;81.84;98120.47;5062105;28;19925;-78
2023/08/23 06:48:10;;;;;;;;;;;;;;;30.50;81.26;98121.00;5062032;28;19925;-78
2023/08/23 06:50:38;;;;;;;;;;;;;;;30.55;80.69;98117.09;5058758;28;19925;-78
2023/08/23 06:53:05;;;;;;;;;;;;;;;30.84;78.58;98119.50;5058056;28;19925;-77
2023/08/23 06:55:31;;;;;;;;;;;;;;;30.91;77.71;98121.50;5060597;28;20389;-77
2023/08/23 06:57:58;;;;;;;;;;;;;;;30.77;78.01;98126.97;5060103;28;19925;-77
2023/08/23 07:00:24;;;;;;;;;;;;;;;30.83;78.45;98123.44;5059797;28;19936;-77
2023/08/23 07:02:51;;;;;;;;;;;;;;;30.73;76.58;98121.44;5058079;28;19925;-77
2023/08/23 07:05:17;;;;;;;;;;;;;;;30.64;77.76;98128.53;5058393;28;19921;-77
2023/08/23 07:07:45;;;;;;;;;;;;;;;29.86;83.10;98123.47;5061401;28;19932;-77
2023/08/23 07:10:11;;;;;;;;;;;;;;;29.91;86.45;98133.31;5061033;28;19982;-77
2023/08/23 07:12:38;;;;;;;;;;;;;;;30.50;83.14;98143.84;5057769;28;19925;-77
2023/08/23 07:15:04;;;;;;;;;;;;;;;30.95;79.79;98139.66;5057731;28;19925;-78
2023/08/23 07:17:33;;;;;;;;;;;;;;;31.04;78.64;98131.78;5060376;28;19928;-77
2023/08/23 07:19:59;;;;;;;;;;;;;;;31.21;77.88;98132.19;5059793;28;19976;-77
2023/08/23 07:22:26;;;;;;;;;;;;;;;31.48;75.02;98136.13;5059342;28;19983;-77
2023/08/23 07:24:53;;;;;;;;;;;;;;;31.47;74.94;98143.59;5057571;28;19991;-77
2023/08/23 07:27:20;;;;;;;;;;;;;;;30.86;76.08;98147.47;5058261;28;19925;-77
2023/08/23 07:29:46;;;;;;;;;;;;;;;30.17;80.11;98155.09;5060993;28;19947;-77
2023/08/23 07:32:13;;;;;;;;;;;;;;;30.27;83.86;98159.06;5060887;28;19964;-77
2023/08/23 07:34:39;;;;;;;;;;;;;;;30.87;81.00;98160.09;5049698;28;19925;-77
2023/08/23 07:37:06;;;;;;;;;;;;;;;31.28;76.52;98157.81;5056296;28;20492;-77
2023/08/23 07:39:33;;;;;;;;;;;;;;;31.20;75.98;98164.50;5059939;28;19925;-77
2023/08/23 07:42:00;;;;;;;;;;;;;;;30.09;80.28;98164.47;5060935;28;19924;-78
2023/08/23 07:44:27;;;;;;;;;;;;;;;29.30;87.79;98161.53;5059210;28;19925;-78
2023/08/23 07:46:53;;;;;;;;;;;;;;;29.38;89.88;98158.47;5053266;28;19929;-77
2023/08/23 07:49:19;;;;;;;;;;;;;;;28.82;92.84;98166.13;5058798;28;19925;-78
2023/08/23 07:51:46;;;;;;;;;;;;;;;28.42;96.25;98177.81;5055996;28;19926;-78
2023/08/23 07:54:13;;;;;;;;;;;;;;;28.69;97.20;98168.34;5056220;28;19932;-78
2023/08/23 07:56:39;;;;;;;;;;;;;;;28.50;97.56;98167.72;5064557;28;19967;-78
2023/08/23 07:59:07;;;;;;;;;;;;;;;29.06;93.79;98168.34;5056169;28;19925;-77
2023/08/23 08:01:33;;;;;;;;;;;;;;;28.76;94.17;98170.38;5060148;28;19933;-78
2023/08/23 08:03:59;;;;;;;;;;;;;;;29.30;92.55;98178.84;5059495;28;19936;-78
2023/08/23 08:06:26;;;;;;;;;;;;;;;29.53;88.55;98166.81;5061006;28;19947;-77
2023/08/23 08:08:52;;;;;;;;;;;;;;;29.82;87.34;98163.13;5059631;28;19947;-77
2023/08/23 08:11:19;;;;;;;;;;;;;;;29.86;86.12;98163.97;5059987;28;19925;-77
2023/08/23 08:13:45;;;;;;;;;;;;;;;30.02;84.77;98164.44;5062115;28;19968;-77
2023/08/23 08:16:14;;;;;;;;;;;;;;;30.06;84.17;98165.25;5063274;28;19950;-77
2023/08/23 08:18:42;;;;;;;;;;;;;;;29.96;84.04;98161.25;5068008;28;19931;-78
2023/08/23 08:21:09;;;;;;;;;;;;;;;30.04;83.05;98166.81;5059803;28;19960;-78
2023/08/23 08:23:35;;;;;;;;;;;;;;;30.08;82.85;98167.63;5061369;28;19952;-78
2023/08/23 08:26:02;;;;;;;;;;;;;;;30.37;80.69;98169.34;5061178;28;19925;-78
2023/08/23 08:28:29;;;;;;;;;;;;;;;29.71;81.47;98165.78;5060670;28;19964;-78
2023/08/23 08:30:55;;;;;;;;;;;;;;;29.74;83.79;98165.00;5058675;28;19952;-78
2023/08/23 08:33:23;;;;;;;;;;;;;;;29.94;82.17;98158.09;5060259;28;19933;-79
2023/08/23 08:35:49;;;;;;;;;;;;;;;29.53;81.88;98164.84;5061923;28;19931;-79
2023/08/23 08:38:16;;;;;;;;;;;;;;;29.21;83.70;98166.53;5060937;28;19948;-80
2023/08/23 08:40:42;;;;;;;;;;;;;;;29.71;83.75;98160.28;5057595;28;19986;-79
2023/08/23 08:43:09;;;;;;;;;;;;;;;30.23;80.40;98164.56;5056381;28;19976;-77
2023/08/23 08:45:36;;;;;;;;;;;;;;;30.42;76.67;98166.25;5060317;28;19924;-77
2023/08/23 08:48:02;;;;;;;;;;;;;;;30.30;75.68;98167.34;5060122;28;19964;-77
2023/08/23 08:50:31;;;;;;;;;;;;;;;30.21;70.31;98166.91;5056565;28;19925;-77
2023/08/23 08:52:59;;;;;;;;;;;;;;;30.11;68.65;98161.34;5056681;28;19948;-78
2023/08/23 08:55:26;;;;;;;;;;;;;;;30.02;63.68;98163.66;5058448;28;20390;-78
2023/08/23 08:57:53;;;;;;;;;;;;;;;29.88;64.94;98158.84;5060052;28;20023;-79
2023/08/23 09:00:22;;;;;;;;;;;;;;;29.83;65.92;98157.22;5058300;28;19932;-79
2023/08/23 09:02:52;;;;;;;;;;;;;;;29.90;68.10;98162.00;5055531;28;19925;-79
2023/08/23 09:05:19;;;;;;;;;;;;;;;29.82;67.18;98154.88;5059221;28;19925;-79
2023/08/23 09:07:46;;;;;;;;;;;;;;;29.54;66.97;98152.69;5062795;28;20649;-79
2023/08/23 09:10:14;;;;;;;;;;;;;;;29.28;67.19;98159.16;5063864;28;19963;-79
2023/08/23 09:12:40;;;;;;;;;;;;;;;29.41;68.71;98159.66;5067996;28;19925;-79
2023/08/23 09:15:07;;;;;;;;;;;;;;;29.88;68.69;98156.09;5060147;28;19925;-80
2023/08/23 09:17:34;;;;;;;;;;;;;;;30.24;67.91;98155.09;5063366;28;19968;-79
2023/08/23 09:20:00;;;;;;;;;;;;;;;30.64;66.24;98150.59;5063475;28;19971;-79
2023/08/23 09:22:27;;;;;;;;;;;;;;;30.25;65.66;98148.44;5062054;28;19952;-79
2023/08/23 09:24:55;;;;;;;;;;;;;;;30.11;67.58;98153.09;5060264;28;19964;-79
2023/08/23 09:27:24;;;;;;;;;;;;;;;30.04;68.24;98150.28;5060045;28;19929;-80
2023/08/23 09:29:53;;;;;;;;;;;;;;;30.59;67.39;98148.19;5063137;28;19928;-79
2023/08/23 09:32:19;;;;;;;;;;;;;;;30.79;67.50;98136.44;5060843;28;19936;-79
2023/08/23 09:34:46;;;;;;;;;;;;;;;30.77;67.18;98143.50;5065046;28;19925;-79
2023/08/23 09:37:12;;;;;;;;;;;;;;;30.92;65.79;98143.16;5058675;28;19921;-79
2023/08/23 09:39:39;;;;;;;;;;;;;;;31.27;63.87;98144.41;5065878;28;19929;-80
2023/08/23 09:42:08;;;;;;;;;;;;;;;30.68;64.90;98135.63;5058953;28;19932;-80
2023/08/23 09:44:36;;;;;;;;;;;;;;;30.07;66.85;98135.75;5058865;28;20034;-79
2023/08/23 09:47:05;;;;;;;;;;;;;;;30.03;67.63;98143.19;5056592;28;19968;-79
2023/08/23 09:49:33;;;;;;;;;;;;;;;30.75;68.56;98135.66;5055048;28;19925;-79
2023/08/23 09:52:00;;;;;;;;;;;;;;;31.45;64.98;98134.16;5055876;28;20268;-78
2023/08/23 09:54:30;;;;;;;;;;;;;;;30.75;65.62;98143.13;5060879;28;19932;-78
2023/08/23 09:56:57;;;;;;;;;;;;;;;30.95;66.30;98128.63;5057537;28;19932;-78
2023/08/23 09:59:25;;;;;;;;;;;;;;;31.53;64.58;98124.72;5059321;28;19925;-78
2023/08/23 10:01:52;;;;;;;;;;;;;;;31.98;63.21;98132.13;5058210;28;19967;-79
2023/08/23 10:04:19;;;;;;;;;;;;;;;31.56;61.37;98123.94;5056291;28;19925;-79
2023/08/23 10:06:47;;;;;;;;;;;;;;;31.53;61.95;98125.53;5060201;28;19976;-79
2023/08/23 10:09:14;;;;;;;;;;;;;;;31.95;63.11;98124.66;5058493;28;19988;-79
2023/08/23 10:11:41;;;;;;;;;;;;;;;31.57;62.33;98119.97;5060748;28;19948;-79
2023/08/23 10:14:09;;;;;;;;;;;;;;;32.00;63.07;98126.22;5060387;28;19925;-78
2023/08/23 10:16:37;;;;;;;;;;;;;;;32.25;61.27;98123.41;5056739;28;20004;-79
2023/08/23 10:19:04;;;;;;;;;;;;;;;32.31;60.60;98119.81;5059243;28;19925;-79
2023/08/23 10:21:30;;;;;;;;;;;;;;;32.33;59.69;98122.19;5059829;28;19929;-79
2023/08/23 10:23:57;;;;;;;;;;;;;;;31.74;60.96;98118.38;5061690;28;19964;-78
2023/08/23 10:26:26;;;;;;;;;;;;;;;31.82;60.80;98120.72;5064491;28;19925;-78
2023/08/23 10:28:53;;;;;;;;;;;;;;;31.32;60.89;98119.19;5057001;28;20000;-78
2023/08/23 10:31:25;;;;;;;;;;;;;;;31.34;62.78;98112.09;5057552;28;19952;-78
2023/08/23 10:33:56;;;;;;;;;;;;;;;32.25;61.28;98106.81;5057621;28;19932;-78
2023/08/23 10:36:24;;;;;;;;;;;;;;;31.72;58.97;98109.72;5057510;28;19996;-78
2023/08/23 10:38:50;;;;;;;;;;;;;;;31.73;61.29;98114.03;5054904;28;19944;-78
2023/08/23 10:41:17;;;;;;;;;;;;;;;32.17;60.88;98114.34;5052623;28;19926;-79
2023/08/23 10:43:46;;;;;;;;;;;;;;;32.25;60.58;98109.59;5056702;28;19931;-78
2023/08/23 10:46:12;;;;;;;;;;;;;;;32.84;59.17;98118.75;5063780;28;19980;-78
2023/08/23 10:48:39;;;;;;;;;;;;;;;32.94;58.29;98113.16;5055484;28;19972;-78
2023/08/23 10:51:07;;;;;;;;;;;;;;;33.11;58.12;98111.50;5057239;28;19951;-78
2023/08/23 10:53:34;;;;;;;;;;;;;;;33.23;57.73;98101.91;5055088;28;19928;-78
2023/08/23 10:56:01;;;;;;;;;;;;;;;33.36;57.51;98100.22;5056422;28;19928;-78
2023/08/23 10:58:27;;;;;;;;;;;;;;;32.96;53.94;98107.25;5060111;28;19968;-78
2023/08/23 11:00:55;;;;;;;;;;;;;;;32.73;57.24;98110.53;5058888;28;19947;-78
2023/08/23 11:03:22;;;;;;;;;;;;;;;33.08;57.00;98104.78;5053201;28;19926;-79
2023/08/23 11:05:48;;;;;;;;;;;;;;;32.75;53.96;98096.28;5059022;28;20069;-79
2023/08/23 11:08:16;;;;;;;;;;;;;;;32.62;56.12;98095.22;5056519;28;19991;-79
2023/08/23 11:10:42;;;;;;;;;;;;;;;32.61;56.48;98094.41;5061290;28;19927;-79
2023/08/23 11:13:09;;;;;;;;;;;;;;;32.82;57.30;98094.28;5057641;28;19973;-79
2023/08/23 11:15:36;;;;;;;;;;;;;;;32.83;56.59;98095.06;5064341;28;19928;-79
2023/08/23 11:18:03;;;;;;;;;;;;;;;32.61;56.25;98097.19;5052056;28;19925;-79
2023/08/23 11:20:29;;;;;;;;;;;;;;;32.81;56.74;98089.94;5056495;28;19982;-79
2023/08/23 11:22:55;;;;;;;;;;;;;;;33.06;56.77;98084.22;5058065;28;19929;-79
2023/08/23 11:25:23;;;;;;;;;;;;;;;33.23;56.06;98085.31;5057129;28;19952;-79
2023/08/23 11:27:49;;;;;;;;;;;;;;;32.87;55.53;98076.44;5052877;28;19960;-80
2023/08/23 11:30:16;;;;;;;;;;;;;;;32.44;54.91;98073.94;5051887;28;19968;-79
2023/08/23 11:32:44;;;;;;;;;;;;;;;32.19;55.46;98083.56;5058347;28;19948;-79
2023/08/23 11:35:10;;;;;;;;;;;;;;;32.13;53.76;98080.41;5056394;28;19925;-79
2023/08/23 11:37:37;;;;;;;;;;;;;;;32.02;55.95;98069.38;5059214;28;19929;-79
2023/08/23 11:40:07;;;;;;;;;;;;;;;32.39;56.10;98079.09;5057038;28;19924;-79
2023/08/23 11:42:36;;;;;;;;;;;;;;;32.21;55.12;98072.88;5068480;28;20010;-80
2023/08/23 11:45:03;;;;;;;;;;;;;;;32.26;53.58;98072.44;5056537;28;19959;-79
2023/08/23 11:47:32;;;;;;;;;;;;;;;32.09;53.10;98072.13;5058467;28;20386;-80
2023/08/23 11:49:58;;;;;;;;;;;;;;;32.11;54.53;98066.22;5057826;28;19968;-80
2023/08/23 11:52:25;;;;;;;;;;;;;;;32.60;55.10;98068.75;5054026;28;20016;-80
2023/08/23 11:54:52;;;;;;;;;;;;;;;32.98;55.03;98066.09;5059312;28;19956;-79
2023/08/23 11:57:18;;;;;;;;;;;;;;;33.21;54.14;98062.81;5058848;28;19933;-79
2023/08/23 11:59:49;;;;;;;;;;;;;;;33.20;52.86;98064.78;5063077;28;19984;-79
2023/08/23 12:02:15;;;;;;;;;;;;;;;32.87;53.96;98062.63;5058474;28;19926;-80
2023/08/23 12:04:42;;;;;;;;;;;;;;;33.08;53.50;98071.56;5063368;28;19921;-80
2023/08/23 12:07:08;;;;;;;;;;;;;;;33.20;54.07;98059.25;5056847;28;19932;-80
2023/08/23 12:09:35;;;;;;;;;;;;;;;33.27;51.94;98056.38;5056517;28;19929;-80
2023/08/23 12:12:02;;;;;;;;;;;;;;;33.06;52.64;98064.84;5056549;28;19927;-80
2023/08/23 12:14:28;;;;;;;;;;;;;;;32.88;51.10;98061.44;5066269;28;19951;-79
2023/08/23 12:16:56;;;;;;;;;;;;;;;32.66;52.33;98060.00;5057090;28;19925;-78
2023/08/23 12:19:23;;;;;;;;;;;;;;;32.77;53.23;98057.97;5051451;28;19932;-80
2023/08/23 12:21:49;;;;;;;;;;;;;;;32.84;52.96;98055.94;5056748;28;19929;-79
2023/08/23 12:24:16;;;;;;;;;;;;;;;33.03;51.57;98060.91;5056630;28;19952;-79
2023/08/23 12:26:43;;;;;;;;;;;;;;;32.98;51.89;98060.56;5058372;28;19925;-79
2023/08/23 12:29:09;;;;;;;;;;;;;;;33.08;51.51;98062.50;5058408;28;19924;-80
2023/08/23 12:31:36;;;;;;;;;;;;;;;33.19;51.70;98048.56;5053743;28;19925;-80
2023/08/23 12:34:03;;;;;;;;;;;;;;;33.25;51.75;98049.69;5056176;28;20028;-79
2023/08/23 12:36:30;;;;;;;;;;;;;;;33.33;51.41;98051.22;5061974;28;19925;-80
2023/08/23 12:38:58;;;;;;;;;;;;;;;33.24;51.76;98061.97;5062147;28;19948;-80
2023/08/23 12:41:25;;;;;;;;;;;;;;;33.22;51.68;98044.97;5058096;28;19936;-80
2023/08/23 12:43:51;;;;;;;;;;;;;;;33.18;50.33;98050.53;5063410;28;19925;-79